sensor_id;sensor_type;location;lat;lon;timestamp;P1;durP1;ratioP1;P2;durP2;ratioP2
21507;SDS011;10915;54.352;9.074;2022-08-24T00:00:47;6.37;;;1.97;;
21507;SDS011;10915;54.352;9.074;2022-08-24T00:03:13;5.33;;;2.00;;
21507;SDS011;10915;54.352;9.074;2022-08-24T00:05:38;5.17;;;1.77;;
21507;SDS011;10915;54.352;9.074;2022-08-24T00:08:05;4.67;;;2.07;;
21507;SDS011;10915;54.352;9.074;2022-08-24T00:10:30;6.60;;;2.10;;
21507;SDS011;10915;54.352;9.074;2022-08-24T00:12:56;4.97;;;2.13;;
21507;SDS011;10915;54.352;9.074;2022-08-24T00:15:22;4.27;;;2.00;;
21507;SDS011;10915;54.352;9.074;2022-08-24T00:17:48;7.90;;;2.07;;
21507;SDS011;10915;54.352;9.074;2022-08-24T00:20:14;6.30;;;2.40;;
21507;SDS011;10915;54.352;9.074;2022-08-24T00:22:40;4.33;;;2.00;;
21507;SDS011;10915;54.352;9.074;2022-08-24T00:25:08;6.20;;;2.10;;
21507;SDS011;10915;54.352;9.074;2022-08-24T00:27:36;4.10;;;1.77;;
21507;SDS011;10915;54.352;9.074;2022-08-24T00:30:04;8.10;;;2.50;;
21507;SDS011;10915;54.352;9.074;2022-08-24T00:32:31;4.77;;;2.03;;
21507;SDS011;10915;54.352;9.074;2022-08-24T00:34:57;5.60;;;2.27;;
21507;SDS011;10915;54.352;9.074;2022-08-24T00:37:22;7.07;;;2.33;;
21507;SDS011;10915;54.352;9.074;2022-08-24T00:39:49;6.97;;;2.20;;
21507;SDS011;10915;54.352;9.074;2022-08-24T00:42:15;7.73;;;2.07;;
21507;SDS011;10915;54.352;9.074;2022-08-24T00:44:41;7.77;;;2.50;;
21507;SDS011;10915;54.352;9.074;2022-08-24T00:47:15;7.00;;;2.50;;
21507;SDS011;10915;54.352;9.074;2022-08-24T00:49:49;4.13;;;2.30;;
21507;SDS011;10915;54.352;9.074;2022-08-24T00:52:23;4.63;;;2.40;;
21507;SDS011;10915;54.352;9.074;2022-08-24T00:55:09;5.27;;;2.37;;
21507;SDS011;10915;54.352;9.074;2022-08-24T00:57:41;5.47;;;2.10;;
21507;SDS011;10915;54.352;9.074;2022-08-24T01:00:10;7.43;;;2.60;;
21507;SDS011;10915;54.352;9.074;2022-08-24T01:02:43;8.37;;;2.67;;
21507;SDS011;10915;54.352;9.074;2022-08-24T01:05:12;4.87;;;2.17;;
21507;SDS011;10915;54.352;9.074;2022-08-24T01:07:40;10.93;;;2.50;;
21507;SDS011;10915;54.352;9.074;2022-08-24T01:10:07;7.13;;;2.40;;
21507;SDS011;10915;54.352;9.074;2022-08-24T01:12:40;5.13;;;2.17;;
21507;SDS011;10915;54.352;9.074;2022-08-24T01:15:10;5.63;;;2.20;;
21507;SDS011;10915;54.352;9.074;2022-08-24T01:17:36;6.80;;;2.40;;
21507;SDS011;10915;54.352;9.074;2022-08-24T01:20:21;7.40;;;2.27;;
21507;SDS011;10915;54.352;9.074;2022-08-24T01:25:44;6.63;;;2.47;;
21507;SDS011;10915;54.352;9.074;2022-08-24T01:28:12;6.07;;;2.60;;
21507;SDS011;10915;54.352;9.074;2022-08-24T01:30:41;5.17;;;2.33;;
21507;SDS011;10915;54.352;9.074;2022-08-24T01:33:09;6.13;;;2.30;;
21507;SDS011;10915;54.352;9.074;2022-08-24T01:35:36;6.50;;;2.80;;
21507;SDS011;10915;54.352;9.074;2022-08-24T01:38:05;4.73;;;2.20;;
21507;SDS011;10915;54.352;9.074;2022-08-24T01:40:35;6.30;;;2.40;;
21507;SDS011;10915;54.352;9.074;2022-08-24T01:43:04;8.07;;;2.73;;
21507;SDS011;10915;54.352;9.074;2022-08-24T01:45:31;5.37;;;2.57;;
21507;SDS011;10915;54.352;9.074;2022-08-24T01:47:57;5.83;;;2.20;;
21507;SDS011;10915;54.352;9.074;2022-08-24T01:50:23;5.33;;;2.47;;
21507;SDS011;10915;54.352;9.074;2022-08-24T01:52:50;6.27;;;2.00;;
21507;SDS011;10915;54.352;9.074;2022-08-24T01:55:17;6.67;;;2.23;;
21507;SDS011;10915;54.352;9.074;2022-08-24T01:57:43;4.33;;;1.87;;
21507;SDS011;10915;54.352;9.074;2022-08-24T02:00:11;7.57;;;2.50;;
21507;SDS011;10915;54.352;9.074;2022-08-24T02:02:41;6.10;;;2.40;;
21507;SDS011;10915;54.352;9.074;2022-08-24T02:05:09;6.67;;;2.10;;
21507;SDS011;10915;54.352;9.074;2022-08-24T02:07:35;5.00;;;1.93;;
21507;SDS011;10915;54.352;9.074;2022-08-24T02:10:02;7.90;;;2.30;;
21507;SDS011;10915;54.352;9.074;2022-08-24T02:12:29;5.70;;;2.30;;
21507;SDS011;10915;54.352;9.074;2022-08-24T02:14:55;5.93;;;2.30;;
21507;SDS011;10915;54.352;9.074;2022-08-24T02:17:21;7.53;;;2.43;;
21507;SDS011;10915;54.352;9.074;2022-08-24T02:19:47;3.53;;;2.13;;
21507;SDS011;10915;54.352;9.074;2022-08-24T02:22:12;3.70;;;1.80;;
21507;SDS011;10915;54.352;9.074;2022-08-24T02:24:38;6.10;;;2.40;;
21507;SDS011;10915;54.352;9.074;2022-08-24T02:27:04;4.63;;;2.30;;
21507;SDS011;10915;54.352;9.074;2022-08-24T02:29:31;4.53;;;2.23;;
21507;SDS011;10915;54.352;9.074;2022-08-24T02:31:56;6.33;;;2.20;;
21507;SDS011;10915;54.352;9.074;2022-08-24T02:34:22;9.63;;;2.27;;
21507;SDS011;10915;54.352;9.074;2022-08-24T02:36:48;3.70;;;1.80;;
21507;SDS011;10915;54.352;9.074;2022-08-24T02:39:14;4.50;;;2.10;;
21507;SDS011;10915;54.352;9.074;2022-08-24T02:41:39;11.03;;;2.33;;
21507;SDS011;10915;54.352;9.074;2022-08-24T02:44:05;5.53;;;2.20;;
21507;SDS011;10915;54.352;9.074;2022-08-24T02:46:31;8.20;;;2.30;;
21507;SDS011;10915;54.352;9.074;2022-08-24T02:48:57;2.90;;;1.73;;
21507;SDS011;10915;54.352;9.074;2022-08-24T02:51:25;4.77;;;2.07;;
21507;SDS011;10915;54.352;9.074;2022-08-24T02:53:52;7.17;;;2.17;;
21507;SDS011;10915;54.352;9.074;2022-08-24T02:56:18;4.73;;;2.37;;
21507;SDS011;10915;54.352;9.074;2022-08-24T02:58:45;4.30;;;2.30;;
21507;SDS011;10915;54.352;9.074;2022-08-24T03:01:11;5.67;;;2.27;;
21507;SDS011;10915;54.352;9.074;2022-08-24T03:03:37;5.07;;;2.00;;
21507;SDS011;10915;54.352;9.074;2022-08-24T03:06:04;8.30;;;2.23;;
21507;SDS011;10915;54.352;9.074;2022-08-24T03:08:31;5.70;;;1.93;;
21507;SDS011;10915;54.352;9.074;2022-08-24T03:10:57;3.67;;;1.70;;
21507;SDS011;10915;54.352;9.074;2022-08-24T03:13:24;5.80;;;2.40;;
21507;SDS011;10915;54.352;9.074;2022-08-24T03:15:51;5.90;;;1.87;;
21507;SDS011;10915;54.352;9.074;2022-08-24T03:18:16;7.80;;;2.10;;
21507;SDS011;10915;54.352;9.074;2022-08-24T03:20:42;6.80;;;2.37;;
21507;SDS011;10915;54.352;9.074;2022-08-24T03:23:08;5.23;;;1.60;;
21507;SDS011;10915;54.352;9.074;2022-08-24T03:25:33;5.80;;;2.50;;
21507;SDS011;10915;54.352;9.074;2022-08-24T03:27:59;7.03;;;2.20;;
21507;SDS011;10915;54.352;9.074;2022-08-24T03:30:25;7.27;;;2.20;;
21507;SDS011;10915;54.352;9.074;2022-08-24T03:32:50;5.30;;;2.47;;
21507;SDS011;10915;54.352;9.074;2022-08-24T03:35:16;4.73;;;2.07;;
21507;SDS011;10915;54.352;9.074;2022-08-24T03:37:42;7.57;;;1.90;;
21507;SDS011;10915;54.352;9.074;2022-08-24T03:40:09;6.67;;;2.10;;
21507;SDS011;10915;54.352;9.074;2022-08-24T03:42:36;4.90;;;2.47;;
21507;SDS011;10915;54.352;9.074;2022-08-24T03:45:01;7.50;;;1.97;;
21507;SDS011;10915;54.352;9.074;2022-08-24T03:47:27;7.30;;;2.27;;
21507;SDS011;10915;54.352;9.074;2022-08-24T03:49:53;6.13;;;2.07;;
21507;SDS011;10915;54.352;9.074;2022-08-24T03:52:20;6.00;;;2.10;;
21507;SDS011;10915;54.352;9.074;2022-08-24T03:54:46;8.07;;;2.50;;
21507;SDS011;10915;54.352;9.074;2022-08-24T03:57:12;4.20;;;2.30;;
21507;SDS011;10915;54.352;9.074;2022-08-24T03:59:38;6.77;;;2.53;;
21507;SDS011;10915;54.352;9.074;2022-08-24T04:02:04;5.87;;;2.30;;
21507;SDS011;10915;54.352;9.074;2022-08-24T04:04:30;7.10;;;2.50;;
21507;SDS011;10915;54.352;9.074;2022-08-24T04:06:56;4.70;;;2.53;;
21507;SDS011;10915;54.352;9.074;2022-08-24T04:09:22;6.13;;;2.07;;
21507;SDS011;10915;54.352;9.074;2022-08-24T04:11:48;6.70;;;2.40;;
21507;SDS011;10915;54.352;9.074;2022-08-24T04:14:15;5.77;;;2.30;;
21507;SDS011;10915;54.352;9.074;2022-08-24T04:16:42;5.17;;;2.73;;
21507;SDS011;10915;54.352;9.074;2022-08-24T04:19:09;6.30;;;2.70;;
21507;SDS011;10915;54.352;9.074;2022-08-24T04:21:35;6.63;;;3.00;;
21507;SDS011;10915;54.352;9.074;2022-08-24T04:24:02;7.27;;;3.17;;
21507;SDS011;10915;54.352;9.074;2022-08-24T04:26:30;4.97;;;2.40;;
21507;SDS011;10915;54.352;9.074;2022-08-24T04:28:56;4.93;;;2.43;;
21507;SDS011;10915;54.352;9.074;2022-08-24T04:31:22;5.53;;;2.57;;
21507;SDS011;10915;54.352;9.074;2022-08-24T04:33:49;6.20;;;2.43;;
21507;SDS011;10915;54.352;9.074;2022-08-24T04:36:16;7.43;;;2.23;;
21507;SDS011;10915;54.352;9.074;2022-08-24T04:38:43;9.40;;;3.20;;
21507;SDS011;10915;54.352;9.074;2022-08-24T04:41:13;6.17;;;2.80;;
21507;SDS011;10915;54.352;9.074;2022-08-24T04:43:40;6.23;;;2.67;;
21507;SDS011;10915;54.352;9.074;2022-08-24T04:46:09;11.57;;;2.60;;
21507;SDS011;10915;54.352;9.074;2022-08-24T04:48:39;7.23;;;3.03;;
21507;SDS011;10915;54.352;9.074;2022-08-24T04:51:05;7.80;;;2.80;;
21507;SDS011;10915;54.352;9.074;2022-08-24T04:53:32;8.97;;;2.97;;
21507;SDS011;10915;54.352;9.074;2022-08-24T04:55:59;5.97;;;2.70;;
21507;SDS011;10915;54.352;9.074;2022-08-24T04:58:26;7.87;;;2.70;;
21507;SDS011;10915;54.352;9.074;2022-08-24T05:00:52;6.03;;;2.77;;
21507;SDS011;10915;54.352;9.074;2022-08-24T05:03:18;7.37;;;3.13;;
21507;SDS011;10915;54.352;9.074;2022-08-24T05:05:46;5.60;;;2.40;;
21507;SDS011;10915;54.352;9.074;2022-08-24T05:08:13;8.33;;;3.00;;
21507;SDS011;10915;54.352;9.074;2022-08-24T05:10:41;23.30;;;3.93;;
21507;SDS011;10915;54.352;9.074;2022-08-24T05:13:09;9.13;;;2.97;;
21507;SDS011;10915;54.352;9.074;2022-08-24T05:15:39;5.53;;;2.87;;
21507;SDS011;10915;54.352;9.074;2022-08-24T05:18:06;6.43;;;2.73;;
21507;SDS011;10915;54.352;9.074;2022-08-24T05:20:32;5.47;;;2.50;;
21507;SDS011;10915;54.352;9.074;2022-08-24T05:23:00;8.27;;;2.90;;
21507;SDS011;10915;54.352;9.074;2022-08-24T05:25:26;6.07;;;2.70;;
21507;SDS011;10915;54.352;9.074;2022-08-24T05:27:52;8.27;;;3.30;;
21507;SDS011;10915;54.352;9.074;2022-08-24T05:30:18;8.87;;;3.03;;
21507;SDS011;10915;54.352;9.074;2022-08-24T05:32:43;7.77;;;2.67;;
21507;SDS011;10915;54.352;9.074;2022-08-24T05:35:09;7.03;;;2.67;;
21507;SDS011;10915;54.352;9.074;2022-08-24T05:37:36;5.27;;;2.87;;
21507;SDS011;10915;54.352;9.074;2022-08-24T05:40:04;8.77;;;3.30;;
21507;SDS011;10915;54.352;9.074;2022-08-24T05:42:32;7.43;;;2.93;;
21507;SDS011;10915;54.352;9.074;2022-08-24T05:44:59;8.17;;;3.10;;
21507;SDS011;10915;54.352;9.074;2022-08-24T05:47:24;9.30;;;3.40;;
21507;SDS011;10915;54.352;9.074;2022-08-24T05:49:50;10.67;;;3.33;;
21507;SDS011;10915;54.352;9.074;2022-08-24T05:52:18;7.73;;;3.13;;
21507;SDS011;10915;54.352;9.074;2022-08-24T05:54:44;6.87;;;3.23;;
21507;SDS011;10915;54.352;9.074;2022-08-24T05:57:10;7.77;;;3.00;;
21507;SDS011;10915;54.352;9.074;2022-08-24T05:59:36;7.80;;;3.07;;
21507;SDS011;10915;54.352;9.074;2022-08-24T06:02:03;9.30;;;3.40;;
21507;SDS011;10915;54.352;9.074;2022-08-24T06:04:28;10.03;;;3.07;;
21507;SDS011;10915;54.352;9.074;2022-08-24T06:06:55;8.93;;;2.97;;
21507;SDS011;10915;54.352;9.074;2022-08-24T06:09:21;8.00;;;3.10;;
21507;SDS011;10915;54.352;9.074;2022-08-24T06:11:46;7.37;;;3.00;;
21507;SDS011;10915;54.352;9.074;2022-08-24T06:14:13;8.23;;;2.77;;
21507;SDS011;10915;54.352;9.074;2022-08-24T06:16:42;7.20;;;2.77;;
21507;SDS011;10915;54.352;9.074;2022-08-24T06:19:11;7.10;;;2.87;;
21507;SDS011;10915;54.352;9.074;2022-08-24T06:21:38;9.17;;;3.40;;
21507;SDS011;10915;54.352;9.074;2022-08-24T06:24:05;9.20;;;3.10;;
21507;SDS011;10915;54.352;9.074;2022-08-24T06:26:31;8.83;;;3.00;;
21507;SDS011;10915;54.352;9.074;2022-08-24T06:29:15;14.43;;;3.60;;
21507;SDS011;10915;54.352;9.074;2022-08-24T06:31:43;7.30;;;3.03;;
21507;SDS011;10915;54.352;9.074;2022-08-24T06:34:11;7.60;;;3.77;;
21507;SDS011;10915;54.352;9.074;2022-08-24T06:36:38;8.43;;;2.93;;
21507;SDS011;10915;54.352;9.074;2022-08-24T06:39:04;10.47;;;3.30;;
21507;SDS011;10915;54.352;9.074;2022-08-24T06:41:30;7.33;;;2.70;;
21507;SDS011;10915;54.352;9.074;2022-08-24T06:43:57;11.13;;;3.47;;
21507;SDS011;10915;54.352;9.074;2022-08-24T06:46:23;6.33;;;2.80;;
21507;SDS011;10915;54.352;9.074;2022-08-24T06:48:48;9.80;;;3.27;;
21507;SDS011;10915;54.352;9.074;2022-08-24T06:51:16;8.47;;;3.10;;
21507;SDS011;10915;54.352;9.074;2022-08-24T06:53:43;5.30;;;2.80;;
21507;SDS011;10915;54.352;9.074;2022-08-24T06:56:09;6.13;;;2.63;;
21507;SDS011;10915;54.352;9.074;2022-08-24T06:58:36;8.33;;;2.93;;
21507;SDS011;10915;54.352;9.074;2022-08-24T07:01:09;7.90;;;2.40;;
21507;SDS011;10915;54.352;9.074;2022-08-24T07:03:49;6.83;;;2.70;;
21507;SDS011;10915;54.352;9.074;2022-08-24T07:06:15;6.53;;;2.60;;
21507;SDS011;10915;54.352;9.074;2022-08-24T07:08:42;6.80;;;2.30;;
21507;SDS011;10915;54.352;9.074;2022-08-24T07:11:09;5.30;;;2.57;;
21507;SDS011;10915;54.352;9.074;2022-08-24T07:13:37;8.43;;;2.83;;
21507;SDS011;10915;54.352;9.074;2022-08-24T07:16:02;5.37;;;2.70;;
21507;SDS011;10915;54.352;9.074;2022-08-24T07:18:28;8.93;;;2.90;;
21507;SDS011;10915;54.352;9.074;2022-08-24T07:20:54;7.10;;;2.90;;
21507;SDS011;10915;54.352;9.074;2022-08-24T07:23:20;5.77;;;2.70;;
21507;SDS011;10915;54.352;9.074;2022-08-24T07:25:47;3.70;;;2.00;;
21507;SDS011;10915;54.352;9.074;2022-08-24T07:28:13;5.13;;;2.13;;
21507;SDS011;10915;54.352;9.074;2022-08-24T07:30:39;9.00;;;2.83;;
21507;SDS011;10915;54.352;9.074;2022-08-24T07:33:06;6.20;;;2.60;;
21507;SDS011;10915;54.352;9.074;2022-08-24T07:35:36;8.33;;;2.37;;
21507;SDS011;10915;54.352;9.074;2022-08-24T07:38:03;6.13;;;2.60;;
21507;SDS011;10915;54.352;9.074;2022-08-24T07:40:30;5.83;;;2.30;;
21507;SDS011;10915;54.352;9.074;2022-08-24T07:42:57;6.40;;;2.03;;
21507;SDS011;10915;54.352;9.074;2022-08-24T07:45:23;6.03;;;2.40;;
21507;SDS011;10915;54.352;9.074;2022-08-24T07:47:50;6.57;;;2.30;;
21507;SDS011;10915;54.352;9.074;2022-08-24T07:50:17;7.97;;;2.27;;
21507;SDS011;10915;54.352;9.074;2022-08-24T07:52:43;6.53;;;2.47;;
21507;SDS011;10915;54.352;9.074;2022-08-24T07:55:09;4.20;;;2.50;;
21507;SDS011;10915;54.352;9.074;2022-08-24T07:57:36;9.73;;;2.50;;
21507;SDS011;10915;54.352;9.074;2022-08-24T08:00:04;6.90;;;2.80;;
21507;SDS011;10915;54.352;9.074;2022-08-24T08:02:33;7.83;;;2.83;;
21507;SDS011;10915;54.352;9.074;2022-08-24T08:04:59;6.13;;;2.13;;
21507;SDS011;10915;54.352;9.074;2022-08-24T08:07:25;5.77;;;2.50;;
21507;SDS011;10915;54.352;9.074;2022-08-24T08:09:50;5.03;;;2.47;;
21507;SDS011;10915;54.352;9.074;2022-08-24T08:12:16;6.67;;;2.70;;
21507;SDS011;10915;54.352;9.074;2022-08-24T08:14:43;7.03;;;2.50;;
21507;SDS011;10915;54.352;9.074;2022-08-24T08:17:09;6.23;;;2.67;;
21507;SDS011;10915;54.352;9.074;2022-08-24T08:19:37;11.20;;;3.17;;
21507;SDS011;10915;54.352;9.074;2022-08-24T08:22:03;9.63;;;2.97;;
21507;SDS011;10915;54.352;9.074;2022-08-24T08:24:47;5.93;;;2.77;;
21507;SDS011;10915;54.352;9.074;2022-08-24T08:27:13;6.17;;;3.20;;
21507;SDS011;10915;54.352;9.074;2022-08-24T08:29:40;7.77;;;3.00;;
21507;SDS011;10915;54.352;9.074;2022-08-24T08:32:07;10.10;;;2.70;;
21507;SDS011;10915;54.352;9.074;2022-08-24T08:34:34;6.67;;;2.60;;
21507;SDS011;10915;54.352;9.074;2022-08-24T08:37:00;6.97;;;2.90;;
21507;SDS011;10915;54.352;9.074;2022-08-24T08:39:30;9.20;;;3.33;;
21507;SDS011;10915;54.352;9.074;2022-08-24T08:56:55;6.43;;;2.83;;
21507;SDS011;10915;54.352;9.074;2022-08-24T22:38:14;9.30;;;4.80;;
21507;SDS011;10915;54.352;9.074;2022-08-24T22:40:40;11.20;;;5.17;;
21507;SDS011;10915;54.352;9.074;2022-08-24T22:43:08;12.03;;;5.00;;
21507;SDS011;10915;54.352;9.074;2022-08-24T22:45:35;12.90;;;5.63;;
21507;SDS011;10915;54.352;9.074;2022-08-24T22:48:01;11.00;;;5.17;;
21507;SDS011;10915;54.352;9.074;2022-08-24T22:50:27;10.43;;;5.20;;
21507;SDS011;10915;54.352;9.074;2022-08-24T22:52:56;12.17;;;5.17;;
21507;SDS011;10915;54.352;9.074;2022-08-24T22:55:21;12.73;;;5.33;;
21507;SDS011;10915;54.352;9.074;2022-08-24T22:57:47;10.43;;;5.33;;
21507;SDS011;10915;54.352;9.074;2022-08-24T23:00:13;9.53;;;5.30;;
21507;SDS011;10915;54.352;9.074;2022-08-24T23:02:39;12.37;;;5.60;;
21507;SDS011;10915;54.352;9.074;2022-08-24T23:05:05;10.53;;;5.30;;
21507;SDS011;10915;54.352;9.074;2022-08-24T23:07:31;8.80;;;5.53;;
21507;SDS011;10915;54.352;9.074;2022-08-24T23:09:57;9.43;;;5.43;;
21507;SDS011;10915;54.352;9.074;2022-08-24T23:12:22;13.93;;;5.97;;
21507;SDS011;10915;54.352;9.074;2022-08-24T23:14:49;8.63;;;5.43;;
21507;SDS011;10915;54.352;9.074;2022-08-24T23:17:16;14.70;;;6.60;;
21507;SDS011;10915;54.352;9.074;2022-08-24T23:19:43;13.13;;;6.83;;
21507;SDS011;10915;54.352;9.074;2022-08-24T23:22:23;9.37;;;5.77;;
21507;SDS011;10915;54.352;9.074;2022-08-24T23:24:50;11.53;;;6.13;;
21507;SDS011;10915;54.352;9.074;2022-08-24T23:27:16;11.50;;;6.57;;
21507;SDS011;10915;54.352;9.074;2022-08-24T23:29:42;12.90;;;6.63;;
21507;SDS011;10915;54.352;9.074;2022-08-24T23:32:10;11.90;;;7.00;;
21507;SDS011;10915;54.352;9.074;2022-08-24T23:34:36;11.73;;;6.80;;
21507;SDS011;10915;54.352;9.074;2022-08-24T23:37:02;11.33;;;6.50;;
21507;SDS011;10915;54.352;9.074;2022-08-24T23:39:29;10.27;;;7.00;;
21507;SDS011;10915;54.352;9.074;2022-08-24T23:41:55;12.97;;;6.73;;
21507;SDS011;10915;54.352;9.074;2022-08-24T23:44:22;13.17;;;6.70;;
21507;SDS011;10915;54.352;9.074;2022-08-24T23:46:50;13.27;;;6.73;;
21507;SDS011;10915;54.352;9.074;2022-08-24T23:49:16;10.53;;;6.27;;
21507;SDS011;10915;54.352;9.074;2022-08-24T23:51:43;13.63;;;6.63;;
21507;SDS011;10915;54.352;9.074;2022-08-24T23:54:10;9.20;;;6.20;;
21507;SDS011;10915;54.352;9.074;2022-08-24T23:56:38;15.83;;;7.00;;
21507;SDS011;10915;54.352;9.074;2022-08-24T23:59:10;10.87;;;6.47;;
